createdAt,value
2019-04-03T00:00:50.748Z,41.29
2019-04-03T00:03:21.372Z,41.49
2019-04-03T00:05:51.971Z,41.34
2019-04-03T00:08:22.661Z,41.39
2019-04-03T00:10:53.066Z,41.25
2019-04-03T00:13:23.615Z,41.30
2019-04-03T00:15:54.071Z,41.68
2019-04-03T00:18:24.551Z,41.74
2019-04-03T00:20:55.057Z,41.80
2019-04-03T00:23:25.492Z,41.79
2019-04-03T00:25:55.923Z,41.96
2019-04-03T00:28:26.402Z,41.97
2019-04-03T00:30:57.007Z,42.28
2019-04-03T00:33:27.489Z,42.20
2019-04-03T00:35:57.923Z,42.38
2019-04-03T00:38:28.362Z,42.35
2019-04-03T00:40:58.811Z,42.65
2019-04-03T00:43:29.278Z,42.31
2019-04-03T00:45:59.759Z,42.77
2019-04-03T00:48:30.248Z,42.61
2019-04-03T00:51:00.832Z,42.99
2019-04-03T00:53:31.311Z,43.14
2019-04-03T00:56:01.744Z,43.38
2019-04-03T00:58:42.945Z,43.42
2019-04-03T01:01:13.864Z,43.21
2019-04-03T01:03:44.351Z,43.64
2019-04-03T01:06:14.826Z,43.23
2019-04-03T01:08:45.240Z,43.66
2019-04-03T01:11:15.700Z,43.81
2019-04-03T01:13:46.297Z,43.85
2019-04-03T01:16:16.735Z,43.99
2019-04-03T01:18:47.368Z,44.12
2019-04-03T01:21:17.749Z,44.18
2019-04-03T01:23:48.195Z,44.33
2019-04-03T01:26:18.689Z,44.75
2019-04-03T01:28:49.121Z,44.98
2019-04-03T01:31:19.614Z,45.11
2019-04-03T01:33:50.066Z,45.32
2019-04-03T01:36:20.552Z,45.15
2019-04-03T01:38:50.991Z,45.43
2019-04-03T01:41:21.665Z,45.43
2019-04-03T01:43:53.849Z,45.70
2019-04-03T01:46:27.235Z,45.71
2019-04-03T01:48:56.723Z,45.79
2019-04-03T01:51:29.739Z,45.82
2019-04-03T01:54:02.358Z,46.00
2019-04-03T01:56:35.189Z,46.08
2019-04-03T01:59:06.895Z,46.23
2019-04-03T02:01:38.882Z,46.36
2019-04-03T02:04:12.229Z,46.35
2019-04-03T02:06:44.212Z,46.45
2019-04-03T02:09:15.997Z,46.53
2019-04-03T02:11:47.602Z,46.51
2019-04-03T02:14:21.281Z,46.72
2019-04-03T02:16:53.219Z,46.49
2019-04-03T02:19:25.840Z,46.63
2019-04-03T02:21:58.150Z,46.66
2019-04-03T02:24:27.706Z,46.66
2019-04-03T02:26:58.221Z,46.55
2019-04-03T02:29:28.630Z,46.45
2019-04-03T02:31:59.106Z,46.39
2019-04-03T02:34:33.405Z,46.52
2019-04-03T02:37:01.735Z,46.61
2019-04-03T02:39:32.219Z,46.66
2019-04-03T02:42:02.675Z,46.81
2019-04-03T02:44:33.109Z,46.84
2019-04-03T02:47:03.586Z,46.98
2019-04-03T02:49:34.068Z,46.79
2019-04-03T02:52:04.685Z,47.30
2019-04-03T02:54:38.184Z,47.22
2019-04-03T02:57:08.600Z,48.14
2019-04-03T02:59:39.096Z,49.25
2019-04-03T03:02:12.512Z,49.21
2019-04-03T03:04:41.847Z,48.93
2019-04-03T03:07:12.493Z,48.57
2019-04-03T03:09:45.688Z,48.24
2019-04-03T03:12:15.717Z,48.32
2019-04-03T03:14:46.362Z,48.32
2019-04-03T03:17:21.689Z,47.74
2019-04-03T03:19:52.446Z,47.97
2019-04-03T03:22:23.982Z,48.04
2019-04-03T03:24:55.453Z,48.05
2019-04-03T03:27:26.325Z,47.85
2019-04-03T03:29:59.741Z,47.88
2019-04-03T03:32:34.840Z,47.76
2019-04-03T03:35:12.295Z,47.82
2019-04-03T03:37:35.728Z,47.73
2019-04-03T03:40:06.762Z,47.53
2019-04-03T03:42:37.329Z,47.65
2019-04-03T03:45:09.594Z,47.60
2019-04-03T03:47:40.438Z,47.50
2019-04-03T03:50:11.577Z,47.52
2019-04-03T03:52:42.364Z,47.25
2019-04-03T03:55:13.050Z,47.46
2019-04-03T03:57:44.095Z,47.31
2019-04-03T04:00:15.495Z,47.02
2019-04-03T04:02:46.306Z,47.14
2019-04-03T04:05:20.025Z,47.08
2019-04-03T04:07:49.419Z,46.98
2019-04-03T04:10:23.961Z,47.17
2019-04-03T04:12:52.437Z,47.33
2019-04-03T04:15:23.029Z,46.96
2019-04-03T04:17:54.581Z,47.24
2019-04-03T04:20:25.284Z,47.19
2019-04-03T04:22:56.222Z,47.38
2019-04-03T04:25:28.270Z,47.38
2019-04-03T04:28:00.242Z,47.22
2019-04-03T04:30:31.274Z,47.26
2019-04-03T04:33:01.962Z,47.29
2019-04-03T04:35:32.398Z,47.71
2019-04-03T04:38:03.059Z,47.56
2019-04-03T04:40:33.710Z,47.45
2019-04-03T04:43:07.272Z,47.70
2019-04-03T04:45:36.609Z,47.27
2019-04-03T04:48:07.021Z,47.27
2019-04-03T04:50:37.620Z,47.28
2019-04-03T04:53:08.072Z,47.15
2019-04-03T04:55:38.808Z,46.43
2019-04-03T04:58:09.908Z,46.18
2019-04-03T05:00:41.602Z,46.14
2019-04-03T05:03:12.100Z,45.57
2019-04-03T05:05:42.624Z,45.49
2019-04-03T05:08:13.093Z,44.51
2019-04-03T05:10:43.874Z,43.98
2019-04-03T05:13:16.256Z,43.98
2019-04-03T05:15:46.455Z,43.43
2019-04-03T05:18:17.001Z,42.14
2019-04-03T05:20:48.845Z,41.90
2019-04-03T05:23:19.799Z,41.98
2019-04-03T05:25:50.839Z,41.78
2019-04-03T05:28:21.419Z,41.29
2019-04-03T05:30:52.172Z,40.75
2019-04-03T05:33:22.780Z,40.80
2019-04-03T05:35:53.385Z,40.69
2019-04-03T05:38:23.885Z,40.19
2019-04-03T05:40:54.718Z,39.57
2019-04-03T05:43:26.724Z,39.55
2019-04-03T05:45:57.206Z,39.74
2019-04-03T05:48:27.911Z,39.51
2019-04-03T05:50:58.641Z,39.01
2019-04-03T05:53:29.228Z,38.65
2019-04-03T05:55:59.810Z,38.71
2019-04-03T05:58:30.269Z,38.42
2019-04-03T06:01:05.820Z,38.61
2019-04-03T06:03:40.699Z,38.33
2019-04-03T06:06:05.288Z,38.49
2019-04-03T06:08:35.785Z,38.07
2019-04-03T06:11:08.866Z,38.04
2019-04-03T06:13:38.575Z,37.99
2019-04-03T06:16:09.235Z,37.41
2019-04-03T06:18:39.796Z,37.13
2019-04-03T06:21:10.489Z,36.47
2019-04-03T06:23:40.963Z,36.08
2019-04-03T06:26:11.427Z,36.18
2019-04-03T06:28:42.789Z,36.04
2019-04-03T06:31:14.293Z,35.86
2019-04-03T06:33:45.445Z,35.40
2019-04-03T06:36:17.545Z,35.15
2019-04-03T06:38:48.115Z,34.89
2019-04-03T06:41:18.584Z,34.71
2019-04-03T06:43:50.401Z,35.11
2019-04-03T06:46:21.282Z,35.05
2019-04-03T06:48:51.810Z,34.64
2019-04-03T06:51:22.459Z,35.12
2019-04-03T06:53:52.916Z,35.04
2019-04-03T06:56:23.686Z,34.98
2019-04-03T06:58:54.140Z,34.97
2019-04-03T07:01:25.123Z,34.61
2019-04-03T07:03:55.590Z,34.46
2019-04-03T07:06:26.102Z,34.29
2019-04-03T07:08:56.550Z,34.21
2019-04-03T07:11:27.116Z,33.80
2019-04-03T07:13:57.888Z,33.64
2019-04-03T07:16:29.151Z,33.27
2019-04-03T07:18:59.655Z,32.99
2019-04-03T07:21:30.146Z,32.89
2019-04-03T07:24:01.349Z,32.60
2019-04-03T07:26:31.891Z,31.93
2019-04-03T07:29:02.381Z,31.75
2019-04-03T07:31:32.935Z,31.30
2019-04-03T07:34:04.014Z,31.61
2019-04-03T07:36:34.496Z,31.78
2019-04-03T07:39:09.855Z,31.09
2019-04-03T07:41:41.279Z,31.23
2019-04-03T07:44:11.626Z,30.75
2019-04-03T07:46:42.082Z,30.63
2019-04-03T07:49:14.206Z,30.46
2019-04-03T07:51:44.742Z,30.66
2019-04-03T07:54:15.261Z,30.91
2019-04-03T07:56:45.706Z,31.09
2019-04-03T07:59:16.214Z,31.19
2019-04-03T08:01:46.665Z,31.14
2019-04-03T08:04:17.151Z,30.54
2019-04-03T08:06:47.573Z,28.99
2019-04-03T08:09:18.076Z,29.75
2019-04-03T08:11:48.769Z,27.30
2019-04-03T08:14:19.883Z,26.88
2019-04-03T08:16:50.833Z,27.68
2019-04-03T08:19:22.970Z,26.83
2019-04-03T08:21:53.445Z,26.34
2019-04-03T08:24:23.932Z,26.22
2019-04-03T08:26:54.526Z,25.87
2019-04-03T08:29:24.955Z,26.53
2019-04-03T08:31:55.440Z,26.52
2019-04-03T08:34:26.212Z,26.63
2019-04-03T08:36:57.308Z,26.11
2019-04-03T08:39:27.881Z,25.70
2019-04-03T08:41:58.374Z,25.23
2019-04-03T08:44:28.832Z,24.54
2019-04-03T08:46:59.341Z,24.88
2019-04-03T08:49:29.794Z,25.07
2019-04-03T08:52:00.405Z,24.82
2019-04-03T08:54:30.955Z,24.73
2019-04-03T08:57:01.716Z,24.63
2019-04-03T08:59:32.160Z,24.88
2019-04-03T09:02:03.017Z,24.84
2019-04-03T09:04:33.714Z,24.93
2019-04-03T09:07:04.355Z,23.07
2019-04-03T09:09:35.862Z,23.06
2019-04-03T09:12:07.302Z,24.34
2019-04-03T09:14:38.525Z,25.02
2019-04-03T09:17:09.037Z,24.43
2019-04-03T09:19:42.009Z,24.52
2019-04-03T09:22:11.851Z,24.62
2019-04-03T09:24:42.310Z,24.13
2019-04-03T09:27:12.835Z,23.41
2019-04-03T09:29:45.128Z,24.12
2019-04-03T09:32:15.829Z,24.63
2019-04-03T09:34:46.272Z,24.97
2019-04-03T09:37:18.180Z,24.61
2019-04-03T09:39:48.799Z,24.82
2019-04-03T09:42:19.619Z,23.97
2019-04-03T09:44:51.881Z,23.42
2019-04-03T09:47:22.333Z,23.16
2019-04-03T09:49:53.052Z,22.82
2019-04-03T09:52:25.297Z,22.36
2019-04-03T09:54:56.024Z,23.00
2019-04-03T09:57:26.799Z,23.13
2019-04-03T09:59:57.508Z,23.46
2019-04-03T10:02:27.970Z,23.30
2019-04-03T10:04:59.046Z,23.48
2019-04-03T10:07:31.148Z,23.38
2019-04-03T10:10:01.919Z,23.46
2019-04-03T10:12:32.716Z,23.14
2019-04-03T10:15:03.284Z,23.09
2019-04-03T10:17:35.171Z,22.97
2019-04-03T10:20:07.033Z,22.95
2019-04-03T10:22:37.812Z,23.16
2019-04-03T10:25:08.749Z,23.22
2019-04-03T10:27:40.665Z,22.94
2019-04-03T10:30:12.867Z,23.12
2019-04-03T10:32:43.539Z,22.92
2019-04-03T10:35:14.294Z,22.85
2019-04-03T10:37:46.624Z,22.82
2019-04-03T10:40:17.815Z,22.73
2019-04-03T10:42:48.292Z,22.97
2019-04-03T10:45:20.158Z,22.90
2019-04-03T10:47:50.774Z,22.89
2019-04-03T10:50:21.639Z,22.39
2019-04-03T10:52:52.232Z,22.32
2019-04-03T10:55:22.708Z,22.32
2019-04-03T10:57:53.251Z,22.08
2019-04-03T11:00:25.861Z,21.87
2019-04-03T11:02:56.279Z,21.97
2019-04-03T11:05:26.701Z,22.42
2019-04-03T11:07:57.206Z,22.00
2019-04-03T11:10:27.736Z,21.65
2019-04-03T11:12:59.012Z,21.80
2019-04-03T11:15:29.637Z,21.59
2019-04-03T11:18:00.093Z,21.87
2019-04-03T11:20:30.698Z,21.73
2019-04-03T11:23:06.304Z,22.46
2019-04-03T11:25:33.857Z,21.95
2019-04-03T11:28:05.519Z,21.70
2019-04-03T11:30:37.005Z,21.74
2019-04-03T11:33:07.572Z,22.12
2019-04-03T11:35:38.200Z,22.33
2019-04-03T11:38:14.174Z,22.06
2019-04-03T11:40:43.121Z,22.29
2019-04-03T11:43:13.632Z,21.83
2019-04-03T11:45:44.143Z,22.14
2019-04-03T11:48:16.428Z,22.12
2019-04-03T11:50:46.856Z,21.79
2019-04-03T11:53:17.361Z,22.69
2019-04-03T11:55:47.834Z,22.62
2019-04-03T11:58:21.149Z,22.15
2019-04-03T12:00:52.244Z,22.30
2019-04-03T12:03:23.135Z,23.09
2019-04-03T12:05:53.632Z,23.25
2019-04-03T12:08:24.069Z,23.56
2019-04-03T12:10:54.599Z,22.97
2019-04-03T12:13:25.058Z,23.02
2019-04-03T12:15:58.235Z,23.07
2019-04-03T12:18:27.848Z,23.37
2019-04-03T12:20:58.843Z,23.44
2019-04-03T12:23:29.332Z,23.51
2019-04-03T12:25:59.779Z,23.69
2019-04-03T12:28:30.611Z,23.32
2019-04-03T12:31:01.463Z,23.24
2019-04-03T12:33:32.187Z,23.30
2019-04-03T12:36:02.920Z,23.27
2019-04-03T12:38:33.439Z,23.09
2019-04-03T12:41:05.286Z,23.52
2019-04-03T12:43:36.173Z,23.87
2019-04-03T12:46:06.798Z,23.45
2019-04-03T12:48:37.244Z,23.46
2019-04-03T12:51:07.723Z,23.39
2019-04-03T12:53:38.268Z,23.35
2019-04-03T12:56:08.751Z,23.39
2019-04-03T12:58:39.211Z,23.03
2019-04-03T13:01:11.588Z,22.94
2019-04-03T13:03:41.893Z,23.08
2019-04-03T13:06:12.385Z,23.55
2019-04-03T13:08:42.861Z,23.23
2019-04-03T13:11:13.461Z,23.18
2019-04-03T13:13:44.204Z,23.04
2019-04-03T13:16:14.728Z,23.07
2019-04-03T13:18:45.272Z,23.00
2019-04-03T13:21:16.812Z,22.94
2019-04-03T13:23:47.753Z,23.18
2019-04-03T13:26:18.623Z,23.64
2019-04-03T13:28:49.044Z,23.00
2019-04-03T13:31:19.717Z,22.97
2019-04-03T13:33:50.182Z,22.68
2019-04-03T13:36:23.523Z,22.59
2019-04-03T13:38:52.851Z,22.40
2019-04-03T13:41:23.626Z,22.05
2019-04-03T13:43:55.025Z,21.86
2019-04-03T13:46:25.717Z,22.00
2019-04-03T13:48:56.190Z,21.90
2019-04-03T13:51:27.259Z,22.04
2019-04-03T13:53:57.853Z,22.17
2019-04-03T13:56:28.359Z,22.19
2019-04-03T13:58:58.981Z,21.97
2019-04-03T14:01:29.480Z,21.78
2019-04-03T14:04:00.397Z,21.60
2019-04-03T14:06:31.228Z,21.75
2019-04-03T14:09:02.107Z,21.90
2019-04-03T14:11:33.246Z,21.70
2019-04-03T14:14:04.776Z,21.35
2019-04-03T14:16:35.626Z,21.25
2019-04-03T14:19:06.208Z,21.42
2019-04-03T14:21:36.963Z,21.50
2019-04-03T14:24:08.864Z,21.69
2019-04-03T14:26:39.871Z,21.47
2019-04-03T14:29:10.344Z,21.53
2019-04-03T14:31:42.180Z,21.51
2019-04-03T14:34:12.932Z,21.55
2019-04-03T14:36:43.624Z,21.79
2019-04-03T14:39:14.210Z,21.74
2019-04-03T14:41:44.772Z,21.71
2019-04-03T14:44:15.221Z,21.67
2019-04-03T14:46:45.750Z,21.69
2019-04-03T14:49:16.336Z,21.76
2019-04-03T14:51:47.163Z,21.91
2019-04-03T14:54:17.645Z,21.69
2019-04-03T14:56:48.183Z,21.65
2019-04-03T14:59:19.214Z,21.51
2019-04-03T15:01:52.073Z,21.44
2019-04-03T15:04:22.091Z,21.51
2019-04-03T15:07:02.849Z,21.65
2019-04-03T15:09:27.037Z,21.95
2019-04-03T15:11:56.838Z,21.84
2019-04-03T15:14:27.988Z,22.16
2019-04-03T15:16:58.459Z,21.90
2019-04-03T15:19:30.611Z,21.73
2019-04-03T15:22:02.288Z,22.11
2019-04-03T15:24:33.922Z,21.85
2019-04-03T15:27:04.493Z,21.81
2019-04-03T15:29:38.253Z,21.95
2019-04-03T15:32:07.340Z,22.26
2019-04-03T15:34:37.837Z,22.03
2019-04-03T15:37:09.176Z,21.91
2019-04-03T15:39:40.275Z,21.75
2019-04-03T15:42:10.824Z,21.89
2019-04-03T15:44:41.315Z,22.05
2019-04-03T15:47:12.309Z,21.97
2019-04-03T15:49:43.154Z,22.13
2019-04-03T15:52:13.875Z,22.26
2019-04-03T15:54:44.371Z,22.24
2019-04-03T15:57:14.869Z,22.46
2019-04-03T15:59:45.731Z,22.53
2019-04-03T16:02:16.329Z,22.71
2019-04-03T16:04:46.762Z,22.63
2019-04-03T16:07:17.241Z,22.77
2019-04-03T16:09:49.550Z,22.78
2019-04-03T16:12:20.078Z,22.90
2019-04-03T16:14:51.356Z,22.74
2019-04-03T16:17:22.647Z,23.04
2019-04-03T16:19:53.533Z,23.28
2019-04-03T16:22:23.944Z,23.24
2019-04-03T16:24:54.539Z,23.46
2019-04-03T16:27:27.675Z,23.35
2019-04-03T16:29:57.280Z,23.40
2019-04-03T16:32:28.264Z,23.36
2019-04-03T16:34:58.957Z,23.46
2019-04-03T16:37:29.853Z,23.54
2019-04-03T16:40:02.285Z,23.62
2019-04-03T16:42:32.607Z,23.86
2019-04-03T16:45:04.885Z,23.91
2019-04-03T16:47:35.266Z,23.98
2019-04-03T16:50:06.755Z,24.02
2019-04-03T16:52:38.165Z,24.06
2019-04-03T16:55:10.088Z,24.13
2019-04-03T16:57:40.588Z,24.21
2019-04-03T17:00:12.283Z,24.45
2019-04-03T17:02:42.795Z,24.45
2019-04-03T17:05:13.453Z,24.55
2019-04-03T17:07:44.049Z,24.81
2019-04-03T17:10:14.826Z,24.97
2019-04-03T17:12:46.231Z,25.01
2019-04-03T17:15:17.869Z,25.46
2019-04-03T17:17:48.738Z,25.87
2019-04-03T17:20:20.353Z,26.09
2019-04-03T17:22:51.611Z,26.13
2019-04-03T17:25:22.081Z,26.16
2019-04-03T17:27:56.534Z,26.27
2019-04-03T17:30:25.358Z,26.43
2019-04-03T17:32:56.260Z,26.72
2019-04-03T17:35:26.948Z,26.91
2019-04-03T17:38:00.024Z,27.12
2019-04-03T17:40:29.552Z,27.59
2019-04-03T17:43:00.067Z,27.74
2019-04-03T17:46:00.773Z,27.86
2019-04-03T17:48:31.263Z,27.99
2019-04-03T17:51:02.542Z,27.99
2019-04-03T17:53:36.418Z,28.15
2019-04-03T17:56:06.085Z,28.42
2019-04-03T17:58:36.526Z,28.63
2019-04-03T18:01:07.093Z,28.73
2019-04-03T18:03:37.533Z,28.84
2019-04-03T18:06:08.017Z,28.85
2019-04-03T18:08:41.863Z,29.10
2019-04-03T18:11:46.764Z,29.35
2019-04-03T18:14:16.555Z,29.58
2019-04-03T18:16:47.039Z,29.45
2019-04-03T18:19:17.483Z,29.80
2019-04-03T18:21:48.915Z,29.93
2019-04-03T18:24:19.912Z,30.10
2019-04-03T18:26:50.339Z,30.65
2019-04-03T18:29:20.819Z,30.85
2019-04-03T18:31:51.340Z,30.99
2019-04-03T18:34:21.847Z,31.20
2019-04-03T18:36:52.341Z,31.51
2019-04-03T18:39:22.822Z,31.65
2019-04-03T18:41:53.300Z,31.83
2019-04-03T18:44:26.020Z,31.90
2019-04-03T18:46:55.928Z,32.04
2019-04-03T18:49:26.414Z,32.45
2019-04-03T18:51:56.900Z,32.54
2019-04-03T18:54:27.388Z,32.86
2019-04-03T18:56:57.892Z,32.92
2019-04-03T18:59:28.498Z,33.31
2019-04-03T19:01:58.996Z,33.60
2019-04-03T19:04:29.444Z,33.84
2019-04-03T19:07:00.027Z,34.17
2019-04-03T19:09:30.536Z,34.08
2019-04-03T19:12:08.304Z,34.47
2019-04-03T19:14:33.118Z,34.48
2019-04-03T19:17:03.605Z,34.78
2019-04-03T19:19:34.184Z,35.08
2019-04-03T19:22:04.765Z,35.33
2019-04-03T19:24:35.245Z,35.70
2019-04-03T19:27:05.775Z,35.48
2019-04-03T19:29:36.388Z,35.55
2019-04-03T19:32:06.786Z,35.70
2019-04-03T19:34:37.268Z,35.79
2019-04-03T19:37:07.744Z,35.87
2019-04-03T19:39:38.227Z,36.00
2019-04-03T19:42:08.691Z,35.76
2019-04-03T19:44:41.540Z,35.66
2019-04-03T19:47:11.344Z,35.85
2019-04-03T19:49:41.792Z,35.95
2019-04-03T19:52:12.245Z,36.00
2019-04-03T19:54:42.737Z,36.19
2019-04-03T19:57:13.204Z,36.16
2019-04-03T19:59:43.668Z,36.28
2019-04-03T20:02:14.260Z,36.22
2019-04-03T20:04:45.907Z,36.05
2019-04-03T20:07:16.885Z,36.28
2019-04-03T20:09:47.335Z,36.33
2019-04-03T20:12:17.818Z,36.35
2019-04-03T20:14:57.989Z,36.42
2019-04-03T20:17:20.428Z,36.67
2019-04-03T20:19:50.947Z,36.64
2019-04-03T20:22:21.433Z,36.92
2019-04-03T20:24:59.797Z,36.90
2019-04-03T20:27:24.219Z,37.14
2019-04-03T20:29:54.804Z,37.33
2019-04-03T20:32:25.284Z,37.34
2019-04-03T20:34:55.720Z,37.57
2019-04-03T20:37:26.597Z,37.82
2019-04-03T20:39:59.565Z,37.81
2019-04-03T20:42:29.206Z,37.52
2019-04-03T20:44:59.654Z,37.86
2019-04-03T20:47:30.136Z,38.05
2019-04-03T20:50:00.593Z,38.18
2019-04-03T20:52:31.054Z,38.08
2019-04-03T20:55:01.565Z,37.91
2019-04-03T20:57:33.352Z,38.21
2019-04-03T21:00:04.720Z,38.32
2019-04-03T21:02:35.165Z,38.06
2019-04-03T21:05:07.745Z,38.45
2019-04-03T21:07:38.035Z,38.73
2019-04-03T21:10:08.969Z,38.71
2019-04-03T21:12:39.403Z,38.84
2019-04-03T21:15:13.418Z,38.83
2019-04-03T21:17:42.460Z,39.13
2019-04-03T21:20:13.101Z,39.09
2019-04-03T21:22:43.578Z,39.59
2019-04-03T21:25:14.264Z,39.71
2019-04-03T21:27:44.711Z,39.61
2019-04-03T21:30:15.285Z,39.95
2019-04-03T21:32:45.726Z,39.64
2019-04-03T21:35:16.216Z,39.58
2019-04-03T21:37:46.690Z,39.77
2019-04-03T21:40:17.227Z,40.11
2019-04-03T21:42:47.707Z,40.23
2019-04-03T21:45:18.264Z,40.23
2019-04-03T21:47:48.766Z,40.22
2019-04-03T21:50:19.955Z,40.47
2019-04-03T21:52:53.464Z,40.62
2019-04-03T21:55:22.602Z,40.71
2019-04-03T21:57:53.082Z,40.98
2019-04-03T22:00:55.365Z,40.82
2019-04-03T22:03:25.846Z,40.98
2019-04-03T22:05:56.618Z,41.08
2019-04-03T22:08:29.081Z,40.96
2019-04-03T22:10:59.455Z,41.09
2019-04-03T22:13:29.898Z,41.43
2019-04-03T22:16:00.440Z,41.49
2019-04-03T22:18:30.884Z,41.63
2019-04-03T22:21:01.998Z,41.76
2019-04-03T22:23:35.579Z,41.93
2019-04-03T22:26:05.549Z,42.03
2019-04-03T22:28:36.166Z,42.18
2019-04-03T22:31:06.852Z,42.38
2019-04-03T22:33:37.298Z,42.37
2019-04-03T22:36:07.878Z,42.29
2019-04-03T22:38:38.311Z,42.62
2019-04-03T22:41:12.068Z,42.68
2019-04-03T22:43:40.916Z,42.66
2019-04-03T22:46:11.416Z,42.38
2019-04-03T22:48:41.873Z,42.69
2019-04-03T22:51:12.343Z,42.86
2019-04-03T22:53:42.791Z,43.04
2019-04-03T22:56:16.569Z,42.97
2019-04-03T22:58:45.409Z,43.05
2019-04-03T23:01:15.996Z,43.33
2019-04-03T23:03:49.154Z,43.03
2019-04-03T23:06:19.352Z,43.41
2019-04-03T23:08:49.809Z,43.82
2019-04-03T23:11:20.251Z,43.86
2019-04-03T23:13:50.725Z,43.88
2019-04-03T23:16:21.157Z,44.17
2019-04-03T23:18:51.632Z,44.28
2019-04-03T23:21:23.882Z,44.22
2019-04-03T23:23:55.899Z,44.18
2019-04-03T23:26:26.515Z,44.29
2019-04-03T23:28:57.060Z,44.37
2019-04-03T23:31:27.543Z,44.30
2019-04-03T23:33:57.982Z,44.17
2019-04-03T23:36:28.475Z,44.86
2019-04-03T23:38:58.922Z,44.97
2019-04-03T23:41:29.406Z,44.93
2019-04-03T23:43:59.887Z,44.88
2019-04-03T23:46:30.344Z,44.76
2019-04-03T23:49:00.786Z,45.03
2019-04-03T23:51:31.230Z,44.71
2019-04-03T23:54:02.956Z,44.89
2019-04-03T23:56:33.723Z,45.09
2019-04-03T23:59:04.214Z,45.57
